Time;durP1;ratioP1;P1;durP2;ratioP2;P2;SDS_P1;SDS_P2;PMS_P1;PMS_P2;Temp;Humidity;BMP_temperature;BMP_pressure;BME280_temperature;BME280_humidity;BME280_pressure;Samples;Min_cycle;Max_cycle;Signal;HPM_P1;HPM_P2
2023/08/02 00:01:53;;;;;;;7.00;3.28;;;;;;;15.00;100.00;100089.91;5060619;28;20104;-76
2023/08/02 00:04:19;;;;;;;8.35;3.05;;;;;;;14.85;100.00;100067.13;5063328;28;20029;-76
2023/08/02 00:06:44;;;;;;;6.25;2.80;;;;;;;14.91;100.00;100091.28;5055960;28;20447;-76
2023/08/02 00:09:10;;;;;;;7.80;3.58;;;;;;;14.88;100.00;100094.06;5064689;28;20480;-76
2023/08/02 00:11:35;;;;;;;4.72;2.95;;;;;;;14.78;100.00;100090.22;5060412;28;20702;-76
2023/08/02 00:14:00;;;;;;;5.63;3.05;;;;;;;14.76;100.00;100089.44;5065344;28;20027;-77
2023/08/02 00:16:26;;;;;;;7.63;3.20;;;;;;;14.72;100.00;100094.00;5063367;28;20094;-77
2023/08/02 00:18:51;;;;;;;11.52;3.40;;;;;;;14.64;100.00;100093.56;5059807;28;20029;-76
2023/08/02 00:21:17;;;;;;;6.80;3.05;;;;;;;14.61;100.00;100098.94;5063953;28;20025;-76
2023/08/02 00:23:42;;;;;;;6.88;3.90;;;;;;;14.48;100.00;100076.88;5062459;28;20033;-76
2023/08/02 00:26:07;;;;;;;6.50;3.10;;;;;;;14.58;100.00;100090.41;5063132;28;20115;-76
2023/08/02 00:28:32;;;;;;;6.03;2.70;;;;;;;14.54;100.00;100086.25;5061941;28;20075;-76
2023/08/02 00:30:58;;;;;;;7.03;2.80;;;;;;;14.57;100.00;100089.56;5063438;28;20051;-76
2023/08/02 00:33:23;;;;;;;4.55;2.80;;;;;;;14.61;100.00;100098.94;5064087;28;20475;-76
2023/08/02 00:35:49;;;;;;;6.60;3.15;;;;;;;14.65;100.00;100100.50;5059744;28;20041;-76
2023/08/02 00:38:14;;;;;;;8.45;3.10;;;;;;;14.77;100.00;100091.13;5063653;28;20146;-76
2023/08/02 00:40:40;;;;;;;7.05;3.00;;;;;;;14.85;100.00;100082.88;5066067;28;20073;-76
2023/08/02 00:43:06;;;;;;;7.28;2.35;;;;;;;14.86;100.00;100079.31;5062488;28;20057;-76
2023/08/02 00:45:32;;;;;;;5.07;2.63;;;;;;;14.94;100.00;100074.50;5066011;28;20112;-75
2023/08/02 00:47:57;;;;;;;4.40;2.70;;;;;;;14.98;100.00;100069.00;5060533;28;20108;-76
2023/08/02 00:50:26;;;;;;;7.15;2.80;;;;;;;15.00;100.00;100058.41;5067829;28;20053;-76
2023/08/02 00:52:51;;;;;;;7.22;2.50;;;;;;;15.06;100.00;100049.38;5060128;28;20033;-75
2023/08/02 00:55:16;;;;;;;7.70;3.05;;;;;;;15.08;100.00;100048.38;5067455;28;20029;-76
2023/08/02 00:57:42;;;;;;;6.50;2.67;;;;;;;15.09;100.00;100041.31;5059661;28;20037;-76
2023/08/02 01:00:08;;;;;;;5.28;2.95;;;;;;;15.11;100.00;100029.81;5060747;28;20033;-75
2023/08/02 01:02:33;;;;;;;9.13;2.80;;;;;;;15.15;100.00;100033.13;5064708;28;20480;-75
2023/08/02 01:04:59;;;;;;;7.63;3.00;;;;;;;15.16;100.00;100035.66;5057594;28;20082;-76
2023/08/02 01:07:32;;;;;;;6.18;2.58;;;;;;;15.15;100.00;100033.97;5059678;28;20059;-75
2023/08/02 01:10:22;;;;;;;7.13;2.75;;;;;;;15.22;100.00;100032.69;5064389;28;20036;-76
2023/08/02 01:12:52;;;;;;;6.72;2.88;;;;;;;15.22;100.00;100032.69;5050523;28;20041;-76
2023/08/02 01:15:17;;;;;;;5.68;3.00;;;;;;;15.23;100.00;100039.63;5058881;28;20025;-76
2023/08/02 01:17:43;;;;;;;11.18;3.25;;;;;;;15.20;100.00;100044.19;5062332;28;20073;-76
2023/08/02 01:20:09;;;;;;;4.68;2.75;;;;;;;15.27;100.00;100049.94;5067420;28;20112;-76
2023/08/02 01:22:34;;;;;;;7.68;3.13;;;;;;;15.19;100.00;100032.84;5064238;28;20033;-76
2023/08/02 01:25:00;;;;;;;9.55;2.90;;;;;;;15.22;100.00;100032.69;5070149;28;20032;-76
2023/08/02 01:27:33;;;;;;;7.32;3.05;;;;;;;15.23;100.00;100023.88;5063261;28;20025;-76
2023/08/02 01:29:59;;;;;;;;;;;;;;;15.36;100.00;100020.56;5058363;28;20392;-76
2023/08/02 01:32:25;;;;;;;8.60;3.33;;;;;;;15.28;100.00;100025.41;5062743;28;19917;-76
2023/08/02 01:34:51;;;;;;;8.05;3.70;;;;;;;15.27;100.00;100010.56;5071271;28;20434;-76
2023/08/02 01:37:16;;;;;;;9.23;3.28;;;;;;;15.27;100.00;100032.44;5063429;28;20033;-76
2023/08/02 01:39:42;;;;;;;9.65;3.40;;;;;;;15.25;100.00;100021.16;5071095;28;20024;-76
2023/08/02 01:42:10;;;;;;;7.65;3.08;;;;;;;15.20;100.00;100008.31;5056040;28;20498;-76
2023/08/02 01:44:35;;;;;;;8.45;3.75;;;;;;;15.23;100.00;100000.22;5068930;28;20059;-75
2023/08/02 01:47:01;;;;;;;5.03;3.08;;;;;;;15.21;100.00;100001.28;5058879;28;20480;-76
2023/08/02 01:49:26;;;;;;;7.30;2.67;;;;;;;15.22;100.00;99998.56;5062520;28;20024;-76
2023/08/02 01:51:51;;;;;;;8.70;3.65;;;;;;;15.13;100.00;99991.19;5066051;28;20070;-76
2023/08/02 01:54:16;;;;;;;8.13;3.13;;;;;;;15.20;100.00;99981.19;5063054;28;20032;-76
2023/08/02 01:56:42;;;;;;;7.28;2.95;;;;;;;15.18;100.00;99983.91;5065834;28;20028;-76
2023/08/02 01:59:07;;;;;;;6.72;3.00;;;;;;;15.11;100.00;99985.19;5065177;28;20031;-76
2023/08/02 02:01:32;;;;;;;6.80;3.10;;;;;;;15.14;100.00;99976.28;5061573;28;20096;-76
2023/08/02 02:03:58;;;;;;;8.65;3.70;;;;;;;15.05;100.00;99964.53;5068117;28;20029;-76
2023/08/02 02:06:23;;;;;;;6.88;3.15;;;;;;;15.03;100.00;99976.03;5063127;28;20029;-75
2023/08/02 02:08:49;;;;;;;9.13;3.05;;;;;;;14.96;100.00;99962.41;5066900;28;20052;-76
2023/08/02 02:11:14;;;;;;;8.05;2.95;;;;;;;14.96;100.00;99946.66;5065555;28;20075;-76
2023/08/02 02:13:39;;;;;;;13.60;4.03;;;;;;;14.91;100.00;99946.94;5062811;28;20036;-76
2023/08/02 02:16:04;;;;;;;8.45;3.75;;;;;;;14.96;100.00;99951.91;5065212;28;20038;-76
2023/08/02 02:18:30;;;;;;;7.80;3.28;;;;;;;14.97;100.00;99938.69;5057768;28;20035;-75
2023/08/02 02:20:55;;;;;;;7.13;3.10;;;;;;;14.95;100.00;99931.84;5066050;28;20036;-75
2023/08/02 02:23:20;;;;;;;10.48;3.72;;;;;;;14.95;100.00;99922.19;5065927;28;20108;-76
2023/08/02 02:25:46;;;;;;;8.75;3.60;;;;;;;14.99;100.00;99909.75;5063576;28;20025;-76
2023/08/02 02:28:11;;;;;;;6.97;3.17;;;;;;;15.00;100.00;99895.69;5061809;28;20058;-76
2023/08/02 02:30:37;;;;;;;6.80;3.00;;;;;;;15.03;100.00;99892.88;5057557;28;20017;-75
2023/08/02 02:33:03;;;;;;;8.05;2.97;;;;;;;14.94;100.00;99870.66;5063248;28;20040;-75
2023/08/02 02:35:28;;;;;;;9.60;3.40;;;;;;;15.06;100.00;99890.09;5057020;28;20108;-76
2023/08/02 02:37:54;;;;;;;6.55;3.42;;;;;;;15.08;100.00;99890.84;5068205;28;20060;-76
2023/08/02 02:40:19;;;;;;;7.32;3.40;;;;;;;15.10;100.00;99891.59;5061102;28;20020;-76
2023/08/02 02:42:44;;;;;;;10.55;3.47;;;;;;;15.10;100.00;99896.00;5063710;28;20032;-76
2023/08/02 02:45:10;;;;;;;9.18;3.40;;;;;;;15.12;100.00;99884.50;5065235;28;20029;-76
2023/08/02 02:47:35;;;;;;;7.50;3.33;;;;;;;15.13;100.00;99880.91;5058054;28;20368;-76
2023/08/02 02:50:02;;;;;;;7.97;3.72;;;;;;;15.17;100.00;99890.34;5063434;28;20036;-76
2023/08/02 02:52:27;;;;;;;12.60;3.58;;;;;;;15.18;100.00;99885.94;5065102;28;20063;-75
2023/08/02 02:54:53;;;;;;;8.43;3.20;;;;;;;15.17;100.00;99889.47;5053066;28;20048;-76
2023/08/02 02:57:18;;;;;;;5.65;3.17;;;;;;;15.18;100.00;99897.28;5064476;28;20029;-76
2023/08/02 02:59:43;;;;;;;8.63;3.80;;;;;;;15.13;100.00;99872.22;5070686;28;20444;-76
2023/08/02 03:02:09;;;;;;;7.07;2.90;;;;;;;15.13;100.00;99866.97;5061001;28;20045;-76
2023/08/02 03:04:34;;;;;;;7.03;3.38;;;;;;;15.11;100.00;99869.69;5067477;28;20027;-75
2023/08/02 03:07:00;;;;;;;6.60;2.88;;;;;;;15.12;100.00;99863.50;5056296;28;20108;-76
2023/08/02 03:09:25;;;;;;;6.10;3.20;;;;;;;15.12;100.00;99839.88;5064688;28;20492;-76
2023/08/02 03:11:50;;;;;;;5.57;3.03;;;;;;;15.11;100.00;99822.44;5065090;28;20103;-76
2023/08/02 03:14:16;;;;;;;9.75;4.07;;;;;;;15.11;100.00;99813.72;5060152;28;20040;-76
2023/08/02 03:16:44;;;;;;;6.70;3.58;;;;;;;15.08;100.00;99801.63;5066497;28;20539;-76
2023/08/02 03:19:11;;;;;;;4.80;3.53;;;;;;;15.00;100.00;99790.69;5053667;28;20444;-76
2023/08/02 03:21:36;;;;;;;11.38;4.20;;;;;;;15.00;100.00;99795.94;5067033;28;20063;-76
2023/08/02 03:24:02;;;;;;;6.90;3.90;;;;;;;14.95;100.00;99787.53;5061235;28;20049;-76
2023/08/02 03:26:27;;;;;;;10.63;4.43;;;;;;;14.96;100.00;99786.56;5059002;28;20063;-76
2023/08/02 03:28:53;;;;;;;5.60;3.80;;;;;;;15.03;100.00;99779.19;5062509;28;20096;-75
2023/08/02 03:31:18;;;;;;;9.13;3.97;;;;;;;15.04;100.00;99779.13;5062873;28;20072;-75
2023/08/02 03:33:44;;;;;;;7.82;3.53;;;;;;;15.02;100.00;99791.47;5063599;28;20108;-75
2023/08/02 03:36:09;;;;;;;4.97;3.60;;;;;;;15.02;100.00;99785.38;5055932;28;20052;-75
2023/08/02 03:38:34;;;;;;;7.80;3.42;;;;;;;15.05;100.00;99795.69;5062419;28;20021;-75
2023/08/02 03:40:59;;;;;;;8.85;3.63;;;;;;;15.04;100.00;99786.13;5060432;28;20079;-76
2023/08/02 03:43:25;;;;;;;7.03;4.13;;;;;;;15.05;100.00;99774.69;5061075;28;20077;-76
2023/08/02 03:45:50;;;;;;;7.70;3.90;;;;;;;14.99;100.00;99760.16;5064767;28;20073;-75
2023/08/02 03:48:16;;;;;;;6.97;3.33;;;;;;;15.08;100.00;99762.25;5066412;28;20511;-76
2023/08/02 03:50:42;;;;;;;5.97;3.80;;;;;;;15.08;100.00;99759.63;5056289;28;20025;-75
2023/08/02 03:53:07;;;;;;;7.65;3.42;;;;;;;15.09;100.00;99752.56;5061374;28;20037;-76
2023/08/02 03:55:33;;;;;;;7.55;4.10;;;;;;;15.12;100.00;99748.00;5052524;28;20024;-76
2023/08/02 03:57:58;;;;;;;6.80;3.67;;;;;;;15.09;100.00;99740.28;5068972;28;20116;-76
2023/08/02 04:00:23;;;;;;;9.27;3.58;;;;;;;15.12;100.00;99737.50;5062498;28;20480;-75
2023/08/02 04:02:48;;;;;;;9.27;4.00;;;;;;;15.05;100.00;99723.03;5058709;28;20029;-75
2023/08/02 04:05:14;;;;;;;5.85;3.72;;;;;;;15.10;100.00;99720.13;5061387;28;20032;-75
2023/08/02 04:07:39;;;;;;;7.50;3.75;;;;;;;15.03;100.00;99701.28;5067941;28;20070;-76
2023/08/02 04:10:06;;;;;;;9.00;3.88;;;;;;;15.07;100.00;99708.03;5062144;28;20468;-75
2023/08/02 04:12:31;;;;;;;9.60;3.65;;;;;;;15.07;100.00;99692.28;5062179;28;20032;-75
2023/08/02 04:14:56;;;;;;;6.70;3.90;;;;;;;15.06;100.00;99689.75;5064197;28;20464;-75
2023/08/02 04:17:22;;;;;;;9.32;4.30;;;;;;;15.03;100.00;99675.03;5060530;28;20040;-76
2023/08/02 04:19:47;;;;;;;9.68;4.22;;;;;;;14.99;100.00;99677.00;5064523;28;20017;-75
2023/08/02 04:22:12;;;;;;;5.75;3.97;;;;;;;15.05;100.00;99681.06;5060970;28;20044;-76
2023/08/02 04:24:38;;;;;;;7.72;4.50;;;;;;;14.94;100.00;99647.59;5066027;28;20051;-76
2023/08/02 04:27:04;;;;;;;8.07;4.55;;;;;;;15.05;100.00;99667.09;5060361;28;20060;-75
2023/08/02 04:29:29;;;;;;;8.52;3.70;;;;;;;15.07;100.00;99650.28;5066051;28;20040;-75
2023/08/02 04:31:55;;;;;;;6.45;3.75;;;;;;;15.10;100.00;99639.59;5060024;28;20103;-76
2023/08/02 04:34:20;;;;;;;8.43;4.10;;;;;;;15.11;100.00;99635.22;5058368;28;20025;-75
2023/08/02 04:36:45;;;;;;;6.72;4.35;;;;;;;15.16;100.00;99639.22;5063698;28;20043;-75
2023/08/02 04:39:11;;;;;;;7.85;3.95;;;;;;;15.18;100.00;99644.41;5052843;28;20031;-76
2023/08/02 04:41:36;;;;;;;9.38;4.70;;;;;;;15.20;100.00;99627.63;5066921;28;20025;-76
2023/08/02 04:44:02;;;;;;;6.50;4.07;;;;;;;15.20;100.00;99611.88;5056180;28;20463;-75
2023/08/02 04:46:27;;;;;;;8.32;4.18;;;;;;;15.22;100.00;99611.75;5064505;28;20031;-75
2023/08/02 04:48:53;;;;;;;8.80;4.68;;;;;;;15.19;100.00;99581.28;5063390;28;20074;-75
2023/08/02 04:51:18;;;;;;;6.20;3.90;;;;;;;15.20;100.00;99585.63;5060321;28;20116;-75
2023/08/02 04:53:47;;;;;;;7.00;4.22;;;;;;;15.18;100.00;99581.41;5054757;28;20022;-76
2023/08/02 04:56:13;;;;;;;6.10;4.00;;;;;;;15.12;100.00;99566.03;5062383;28;20028;-75
2023/08/02 04:58:38;;;;;;;6.10;4.55;;;;;;;15.10;100.00;99578.38;5067433;28;20024;-76
2023/08/02 05:01:04;;;;;;;9.45;4.80;;;;;;;14.99;100.00;99558.91;5066751;28;20036;-76
2023/08/02 05:03:30;;;;;;;11.55;4.97;;;;;;;14.99;100.00;99569.41;5063225;28;20056;-75
2023/08/02 05:05:59;;;;;;;10.13;5.10;;;;;;;14.95;100.00;99567.91;5065201;28;20507;-76
2023/08/02 05:08:25;;;;;;;9.02;5.13;;;;;;;14.89;100.00;99559.56;5060754;28;20055;-76
2023/08/02 05:10:50;;;;;;;7.63;4.43;;;;;;;14.87;100.00;99558.81;5068843;28;20416;-76
2023/08/02 05:13:15;;;;;;;8.18;4.80;;;;;;;14.67;100.00;99536.44;5063505;28;20077;-76
2023/08/02 05:15:41;;;;;;;9.10;5.10;;;;;;;14.79;100.00;99553.22;5060820;28;20111;-77
2023/08/02 05:18:06;;;;;;;9.43;5.22;;;;;;;14.80;100.00;99555.72;5067046;28;20090;-78
2023/08/02 05:20:32;;;;;;;14.38;5.63;;;;;;;14.78;100.00;99543.63;5066817;28;20456;-79
2023/08/02 05:22:58;;;;;;;10.63;4.90;;;;;;;14.73;100.00;99526.41;5066672;28;20039;-78
2023/08/02 05:25:31;;;;;;;11.52;5.53;;;;;;;14.71;100.00;99530.94;5064914;28;20025;-78
2023/08/02 05:27:56;;;;;;;11.67;5.23;;;;;;;14.66;100.00;99517.22;5050391;28;20037;-79
2023/08/02 05:30:21;;;;;;;12.00;6.00;;;;;;;14.65;100.00;99518.19;5068682;28;20044;-78
2023/08/02 05:32:48;;;;;;;8.52;5.85;;;;;;;14.68;100.00;99519.75;5067225;28;20079;-79
2023/08/02 05:35:13;;;;;;;11.15;5.82;;;;;;;14.70;100.00;99499.53;5070385;28;20028;-79
2023/08/02 05:37:39;;;;;;;8.77;5.43;;;;;;;14.73;100.00;99489.69;5061256;28;20029;-78
2023/08/02 05:40:05;;;;;;;8.00;5.70;;;;;;;14.75;100.00;99487.81;5066546;28;20020;-78
2023/08/02 05:42:30;;;;;;;10.57;5.53;;;;;;;14.72;100.00;99487.16;5070338;28;20157;-79
2023/08/02 05:44:55;;;;;;;11.63;5.55;;;;;;;14.72;100.00;99482.75;5064766;28;20748;-79
2023/08/02 05:47:21;;;;;;;10.23;6.20;;;;;;;14.69;100.00;99474.25;5069826;28;20121;-78
2023/08/02 05:49:48;;;;;;;9.68;6.15;;;;;;;14.64;100.00;99463.19;5057429;28;20491;-77
2023/08/02 05:52:14;;;;;;;7.63;6.10;;;;;;;14.65;100.00;99455.22;5068311;28;20039;-77
2023/08/02 05:54:39;;;;;;;8.75;5.93;;;;;;;14.74;100.00;99461.66;5041652;28;20041;-79
2023/08/02 05:57:06;;;;;;;8.50;5.55;;;;;;;14.70;100.00;99445.28;5054536;28;20018;-78
2023/08/02 05:59:31;;;;;;;8.73;5.28;;;;;;;14.68;100.00;99436.69;5050450;28;20029;-79
2023/08/02 06:01:56;;;;;;;9.00;4.93;;;;;;;14.72;100.00;99417.19;5041379;28;20033;-79
2023/08/02 06:04:22;;;;;;;7.60;4.90;;;;;;;14.79;100.00;99408.94;5047542;28;20096;-78
2023/08/02 06:06:47;;;;;;;7.03;5.00;;;;;;;14.79;100.00;99403.69;5040294;28;20156;-79
2023/08/02 06:09:13;;;;;;;7.63;4.95;;;;;;;14.84;100.00;99397.19;5047227;28;20072;-78
2023/08/02 06:11:38;;;;;;;8.30;5.00;;;;;;;14.88;100.00;99390.81;5047385;28;20029;-79
2023/08/02 06:14:04;;;;;;;10.88;4.65;;;;;;;14.88;100.00;99389.97;5050506;28;20033;-78
2023/08/02 06:16:29;;;;;;;5.90;4.63;;;;;;;14.87;100.00;99377.78;5045557;28;20474;-80
2023/08/02 06:18:54;;;;;;;5.75;4.28;;;;;;;14.84;100.00;99380.59;5058469;28;20033;-80
2023/08/02 06:21:20;;;;;;;6.35;4.55;;;;;;;14.87;100.00;99367.28;5056723;28;20052;-79
2023/08/02 06:23:45;;;;;;;7.50;4.30;;;;;;;14.86;100.00;99363.00;5051320;28;20012;-80
2023/08/02 06:26:10;;;;;;;6.05;4.32;;;;;;;14.90;100.00;99346.09;5052613;28;20098;-80
2023/08/02 06:28:36;;;;;;;5.15;3.70;;;;;;;14.91;100.00;99346.00;5054694;28;20480;-80
2023/08/02 06:31:01;;;;;;;5.90;4.18;;;;;;;14.87;100.00;99344.50;5057075;28;20031;-80
2023/08/02 06:33:26;;;;;;;5.30;4.20;;;;;;;14.94;100.00;99339.69;5055580;28;20463;-80
2023/08/02 06:35:52;;;;;;;7.18;4.47;;;;;;;14.96;100.00;99332.59;5064714;28;20104;-80
2023/08/02 06:38:17;;;;;;;5.35;4.18;;;;;;;14.90;100.00;99311.97;5056846;28;20468;-81
2023/08/02 06:40:42;;;;;;;5.07;3.83;;;;;;;14.89;100.00;99316.41;5061405;28;20071;-80
2023/08/02 06:43:08;;;;;;;5.80;4.30;;;;;;;14.92;100.00;99312.75;5065547;28;20027;-81
2023/08/02 06:45:33;;;;;;;4.85;4.20;;;;;;;14.92;100.00;99299.63;5060541;28;20059;-80
2023/08/02 06:47:59;;;;;;;7.60;4.47;;;;;;;14.90;100.00;99296.25;5054021;28;20504;-78
2023/08/02 06:50:24;;;;;;;5.45;3.88;;;;;;;14.88;100.00;99287.66;5049754;28;20025;-77
2023/08/02 06:52:49;;;;;;;7.93;4.15;;;;;;;14.94;100.00;99287.22;5053755;28;20029;-78
2023/08/02 06:55:16;;;;;;;4.85;4.35;;;;;;;14.98;100.00;99278.22;5050948;28;20107;-79
2023/08/02 06:57:42;;;;;;;6.68;3.92;;;;;;;14.97;100.00;99266.03;5058486;28;20799;-79
2023/08/02 07:00:08;;;;;;;5.90;4.03;;;;;;;14.98;100.00;99252.81;5052044;28;20025;-79
2023/08/02 07:02:33;;;;;;;4.95;3.85;;;;;;;14.96;100.00;99248.59;5066936;28;20021;-79
2023/08/02 07:04:58;;;;;;;4.93;3.20;;;;;;;14.98;100.00;99251.97;5049445;28;20199;-80
2023/08/02 07:07:24;;;;;;;4.85;3.58;;;;;;;14.95;100.00;99242.53;5056695;28;20522;-79
2023/08/02 07:09:49;;;;;;;5.78;3.83;;;;;;;14.98;100.00;99236.25;5050034;28;20022;-79
2023/08/02 07:12:15;;;;;;;4.05;3.45;;;;;;;14.98;100.00;99237.06;5057576;28;20510;-78
2023/08/02 07:14:40;;;;;;;4.50;3.40;;;;;;;14.98;100.00;99231.00;5058079;28;20039;-79
2023/08/02 07:17:06;;;;;;;3.95;3.53;;;;;;;14.99;100.00;99233.50;5054574;28;20025;-79
2023/08/02 07:19:32;;;;;;;3.97;3.47;;;;;;;15.04;100.00;99227.97;5051174;28;20062;-79
2023/08/02 07:21:57;;;;;;;7.57;3.90;;;;;;;15.06;100.00;99218.19;5062174;28;20044;-79
2023/08/02 07:24:22;;;;;;;4.60;3.55;;;;;;;15.06;100.00;99220.81;5063434;28;20021;-80
2023/08/02 07:26:48;;;;;;;6.53;3.60;;;;;;;15.09;100.00;99217.97;5053698;28;20107;-79
2023/08/02 07:29:13;;;;;;;5.00;3.85;;;;;;;15.14;100.00;99215.03;5061705;28;20040;-79
2023/08/02 07:31:39;;;;;;;5.75;3.88;;;;;;;15.18;100.00;99214.72;5059878;28;20041;-79
2023/08/02 07:34:04;;;;;;;7.28;4.25;;;;;;;15.22;100.00;99208.31;5054411;28;20442;-80
2023/08/02 07:36:29;;;;;;;5.30;4.20;;;;;;;15.23;100.00;99204.72;5057952;28;20115;-81
2023/08/02 07:38:55;;;;;;;5.72;3.97;;;;;;;15.32;100.00;99205.06;5059379;28;20040;-79
2023/08/02 07:41:20;;;;;;;5.50;4.20;;;;;;;15.39;100.00;99203.69;5058432;28;20469;-79
2023/08/02 07:43:45;;;;;;;5.90;4.18;;;;;;;15.46;100.00;99189.19;5063722;28;20074;-80
2023/08/02 07:46:19;;;;;;;4.68;3.67;;;;;;;15.55;100.00;99187.69;5053093;28;20035;-80
2023/08/02 07:48:44;;;;;;;4.43;3.65;;;;;;;15.64;100.00;99180.00;5050491;28;20096;-80
2023/08/02 07:51:09;;;;;;;4.63;3.65;;;;;;;15.73;100.00;99172.44;5039057;28;20049;-79
2023/08/02 07:53:35;;;;;;;4.65;3.65;;;;;;;15.77;100.00;99171.31;5051823;28;20024;-80
2023/08/02 07:56:03;;;;;;;5.72;3.45;;;;;;;15.77;100.00;99161.63;5046747;28;20056;-80
2023/08/02 07:58:29;;;;;;;5.95;3.60;;;;;;;15.78;100.00;99154.56;5054254;28;20040;-80
2023/08/02 08:00:54;;;;;;;4.25;3.40;;;;;;;15.81;100.00;99157.81;5052865;28;20032;-82
2023/08/02 08:03:20;;;;;;;4.82;3.28;;;;;;;15.96;100.00;99147.16;5058599;28;20077;-80
2023/08/02 08:05:47;;;;;;;4.45;3.40;;;;;;;15.95;100.00;99138.44;5054257;28;20048;-80
2023/08/02 08:08:13;;;;;;;4.40;3.25;;;;;;;16.10;100.00;99155.72;5053845;28;20527;-80
2023/08/02 08:10:39;;;;;;;4.05;3.00;;;;;;;16.10;100.00;99144.38;5057165;28;20032;-79
2023/08/02 08:13:04;;;;;;;4.85;2.47;;;;;;;16.01;100.00;99145.88;5055384;28;20410;-78
2023/08/02 08:15:29;;;;;;;3.65;2.60;;;;;;;16.03;100.00;99143.16;5052858;28;20017;-78
2023/08/02 08:17:55;;;;;;;2.65;2.45;;;;;;;16.05;100.00;99122.81;5062845;28;20052;-78
2023/08/02 08:20:20;;;;;;;4.32;2.50;;;;;;;16.17;100.00;99136.88;5060496;28;20086;-78
2023/08/02 08:22:47;;;;;;;4.95;2.60;;;;;;;16.13;100.00;99126.59;5053271;28;20032;-78
2023/08/02 08:25:12;;;;;;;3.60;2.30;;;;;;;16.19;100.00;99122.66;5054225;28;20032;-78
2023/08/02 08:27:38;;;;;;;3.65;2.10;;;;;;;16.22;100.00;99124.22;5060301;28;20021;-78
2023/08/02 08:30:04;;;;;;;3.38;2.30;;;;;;;16.30;100.00;99112.19;5051677;28;20052;-77
2023/08/02 08:32:30;;;;;;;2.80;2.40;;;;;;;16.38;100.00;99124.75;5053293;28;20094;-77
2023/08/02 08:34:55;;;;;;;4.63;2.08;;;;;;;16.48;100.00;99120.50;5057886;28;20045;-77
2023/08/02 08:37:21;;;;;;;3.25;2.10;;;;;;;16.58;100.00;99118.00;5040521;28;20083;-78
2023/08/02 08:39:46;;;;;;;3.55;2.00;;;;;;;16.62;100.00;99122.91;5050392;28;20100;-78
2023/08/02 08:42:12;;;;;;;2.88;1.92;;;;;;;16.64;100.00;99109.63;5056200;28;20069;-78
2023/08/02 08:44:38;;;;;;;4.20;2.40;;;;;;;16.74;100.00;99109.78;5057990;28;20052;-78
2023/08/02 08:47:07;;;;;;;7.45;3.00;;;;;;;16.83;100.00;99111.72;5061185;28;20021;-78
2023/08/02 08:49:33;;;;;;;5.15;3.50;;;;;;;16.91;100.00;99111.16;5055794;28;20500;-77
2023/08/02 08:52:04;;;;;;;3.42;3.13;;;;;;;16.99;100.00;99114.84;5053229;28;20404;-77
2023/08/02 08:54:30;;;;;;;3.47;3.17;;;;;;;17.09;100.00;99107.09;5052546;28;20475;-76
2023/08/02 08:56:57;;;;;;;3.55;3.20;;;;;;;17.18;100.00;99110.81;5051466;28;20357;-76
2023/08/02 08:59:24;;;;;;;3.30;3.08;;;;;;;17.27;100.00;99107.47;5065856;28;20028;-76
2023/08/02 09:01:50;;;;;;;5.75;3.33;;;;;;;17.41;100.00;99098.47;5060654;28;20032;-77
2023/08/02 09:04:15;;;;;;;3.28;2.97;;;;;;;17.51;100.00;99091.50;5060190;28;20109;-76
2023/08/02 09:06:41;;;;;;;3.88;3.58;;;;;;;17.63;100.00;99084.41;5047446;28;20048;-77
2023/08/02 09:09:06;;;;;;;3.85;3.55;;;;;;;17.73;100.00;99086.19;5058747;28;20021;-76
2023/08/02 09:11:31;;;;;;;4.18;3.85;;;;;;;17.85;100.00;99083.53;5055622;28;20029;-76
2023/08/02 09:14:16;;;;;;;4.30;3.45;;;;;;;17.94;100.00;99083.63;5055412;28;20023;-76
2023/08/02 09:17:01;;;;;;;4.28;3.88;;;;;;;18.15;100.00;99067.00;5056430;28;20648;-76
2023/08/02 09:19:31;;;;;;;4.07;3.78;;;;;;;18.28;100.00;99061.53;5067751;28;20024;-77
2023/08/02 09:22:27;;;;;;;4.10;3.80;;;;;;;18.41;100.00;99055.13;5056757;28;20380;-75
2023/08/02 09:24:52;;;;;;;4.28;3.97;;;;;;;18.47;100.00;99059.00;5045447;28;20029;-77
2023/08/02 09:27:20;;;;;;;4.00;3.70;;;;;;;18.65;100.00;99046.06;5059143;28;20438;-76
2023/08/02 09:29:47;;;;;;;4.10;3.53;;;;;;;18.72;100.00;99044.59;5066470;28;20055;-77
2023/08/02 09:32:12;;;;;;;3.50;3.20;;;;;;;18.78;100.00;99038.81;5056325;28;20048;-76
2023/08/02 09:34:52;;;;;;;3.45;3.13;;;;;;;18.67;100.00;99042.34;5060312;28;20075;-76
2023/08/02 09:37:32;;;;;;;3.38;3.17;;;;;;;18.56;100.00;99034.50;5052083;28;20027;-76
2023/08/02 09:39:58;;;;;;;3.20;2.70;;;;;;;18.41;100.00;99035.78;5063709;28;20017;-76
2023/08/02 09:42:25;;;;;;;5.32;2.85;;;;;;;18.42;100.00;99038.31;5068653;28;20021;-76
2023/08/02 09:45:00;;;;;;;3.45;3.17;;;;;;;18.54;100.00;99031.16;5061826;28;20486;-76
2023/08/02 09:47:27;;;;;;;3.65;3.35;;;;;;;18.94;100.00;99027.75;5062947;28;20016;-76
2023/08/02 09:50:08;;;;;;;3.40;3.10;;;;;;;19.25;100.00;99027.72;5067646;28;20028;-76
2023/08/02 09:52:34;;;;;;;3.55;3.25;;;;;;;19.45;100.00;99015.38;5064729;28;20373;-76
2023/08/02 09:55:00;;;;;;;4.15;2.85;;;;;;;19.54;100.00;99015.38;5062098;28;20028;-78
2023/08/02 09:57:30;;;;;;;2.50;2.30;;;;;;;19.40;100.00;99013.97;5057402;28;20103;-76
2023/08/02 09:59:59;;;;;;;2.25;1.85;;;;;;;19.20;100.00;99006.16;5057578;28;20048;-77
2023/08/02 10:02:26;;;;;;;2.40;2.20;;;;;;;19.01;100.00;99013.06;5067024;28;20450;-77
2023/08/02 10:04:56;;;;;;;3.10;2.80;;;;;;;18.95;100.00;99017.06;5067597;28;20033;-73
2023/08/02 10:07:45;;;;;;;2.78;2.40;;;;;;;19.18;100.00;99020.31;5065157;28;20029;-73
2023/08/02 10:10:18;;;;;;;4.03;2.80;;;;;;;19.78;100.00;99006.25;5067416;28;20032;-73
2023/08/02 10:12:51;;;;;;;2.35;2.15;;;;;;;20.39;100.00;99013.00;5060707;28;20082;-73
2023/08/02 10:15:17;;;;;;;4.72;2.17;;;;;;;20.83;100.00;99005.34;5061841;28;20021;-73
2023/08/02 10:17:44;;;;;;;2.75;1.83;;;;;;;21.36;100.00;98978.19;5057248;28;20025;-73
2023/08/02 10:20:11;;;;;;;1.60;1.38;;;;;;;21.57;100.00;98978.72;5062130;28;20044;-74
2023/08/02 10:22:39;;;;;;;2.30;1.70;;;;;;;21.74;100.00;98974.38;5064236;28;20025;-73
2023/08/02 10:25:05;;;;;;;5.38;1.63;;;;;;;22.06;100.00;98971.16;5063852;28;20047;-73
2023/08/02 10:27:31;;;;;;;1.35;1.25;;;;;;;22.04;100.00;98972.31;5053741;28;20029;-73
2023/08/02 10:29:57;;;;;;;3.90;1.60;;;;;;;22.09;100.00;98972.69;5061718;28;20070;-73
2023/08/02 10:32:22;;;;;;;1.98;1.30;;;;;;;22.54;100.00;98969.84;5060516;28;20048;-73
2023/08/02 10:34:52;;;;;;;1.92;1.33;;;;;;;22.38;100.00;98961.78;5064072;28;20113;-73
2023/08/02 10:37:19;;;;;;;4.97;1.50;;;;;;;22.14;100.00;98962.44;5057460;28;20032;-74
2023/08/02 10:39:44;;;;;;;6.93;1.58;;;;;;;21.74;100.00;98966.44;5056990;28;20030;-73
2023/08/02 10:42:10;;;;;;;1.45;1.35;;;;;;;21.27;100.00;98953.38;5049623;28;20074;-74
2023/08/02 10:44:36;;;;;;;3.60;1.80;;;;;;;20.85;100.00;98939.84;5046314;28;20071;-73
2023/08/02 10:47:27;;;;;;;3.67;1.80;;;;;;;20.51;100.00;98957.13;5039739;28;20380;-73
2023/08/02 10:49:53;;;;;;;2.88;1.80;;;;;;;20.09;100.00;98956.66;5061108;28;20031;-75
2023/08/02 10:52:29;;;;;;;1.92;1.73;;;;;;;19.57;100.00;98961.41;5046413;28;20037;-84
2023/08/02 10:55:13;;;;;;;7.22;1.98;;;;;;;19.12;100.00;98956.63;5051901;28;20055;-83
2023/08/02 10:58:05;;;;;;;4.63;2.10;;;;;;;18.81;100.00;98922.38;5050028;28;20064;-86
2023/08/02 11:00:32;;;;;;;3.42;2.60;;;;;;;18.97;100.00;98918.41;5060251;28;20039;-82
2023/08/02 11:02:58;;;;;;;4.10;2.75;;;;;;;19.20;100.00;98916.34;5053122;28;20029;-83
2023/08/02 11:05:49;;;;;;;5.53;2.67;;;;;;;19.20;100.00;98911.91;5058337;28;20426;-84
2023/08/02 11:08:15;;;;;;;3.92;2.88;;;;;;;19.25;100.00;98916.75;5052576;28;20032;-85
2023/08/02 11:10:50;;;;;;;2.95;2.75;;;;;;;19.12;100.00;98932.88;5060573;28;20033;-86
2023/08/02 11:13:16;;;;;;;9.63;3.30;;;;;;;18.95;100.00;98924.63;5051470;28;20500;-85
2023/08/02 11:15:41;;;;;;;15.63;3.90;;;;;;;18.86;100.00;98928.09;5066858;28;20055;-84
2023/08/02 11:18:09;;;;;;;11.30;3.72;;;;;;;18.79;100.00;98937.50;5052283;28;20061;-85
2023/08/02 11:20:38;;;;;;;7.82;4.10;;;;;;;18.71;100.00;98940.81;5057363;28;20017;-82
2023/08/02 11:23:23;;;;;;;8.30;3.40;;;;;;;18.71;100.00;98945.25;5049666;28;20033;-82